MDT,Max TemperatureF,Mean TemperatureF,Min TemperatureF,Max Dew PointF,MeanDew PointF,Min DewpointF,Max Humidity, Mean Humidity, Min Humidity, Max Sea Level PressureIn, Mean Sea Level PressureIn, Min Sea Level PressureIn, Max VisibilityMiles, Mean VisibilityMiles, Min VisibilityMiles, Max Wind SpeedMPH, Mean Wind SpeedMPH, Max Gust SpeedMPH,PrecipitationIn, CloudCover, Events, WindDirDegrees
2013-4-1,46,32,17,20,18,15,92,63,33,30.23,30.16,30.11,10,10,10,17,6,26,0.00,0,,151
2013-4-2,50,35,20,22,18,15,84,58,31,30.15,30.12,30.09,10,10,10,13,5,20,0.00,0,,49
2013-4-3,63,46,28,32,23,17,76,47,17,30.08,30.01,29.92,10,10,10,20,8,29,0.00,2,,276
2013-4-4,54,40,26,30,24,16,92,62,32,30.08,30.03,29.95,10,10,10,15,6,20,0.00,1,,110
2013-4-5,66,48,29,34,27,16,70,46,22,29.91,29.69,29.52,10,10,10,31,8,45,0.03,3,Rain,275
2013-4-6,55,44,33,34,27,21,79,55,30,29.78,29.74,29.63,10,10,10,24,9,36,T,3,Rain,294
2013-4-7,56,44,31,36,30,23,82,57,32,29.76,29.64,29.53,10,10,10,17,4,23,T,5,,84
2013-4-8,46,30,13,34,23,7,96,81,65,30.01,29.77,29.54,10,5,0,24,11,36,0.12,6,Fog-Snow,37
2013-4-9,15,11,7,7,4,0,83,75,67,30.38,30.10,29.88,10,2,0,23,8,38,0.76,8,Fog-Snow,15
2013-4-10,24,16,8,18,10,3,92,80,67,30.31,30.02,29.80,9,2,0,12,5,17,0.18,8,Fog-Snow,37
2013-4-11,37,21,5,27,18,3,92,78,63,29.97,29.82,29.66,10,10,7,21,7,32,T,5,Snow,318
2013-4-12,37,27,17,22,18,14,77,62,47,29.99,29.90,29.81,10,10,10,24,9,33,0.00,2,,310
2013-4-13,47,32,17,36,26,13,85,61,37,29.96,29.58,29.31,10,10,5,15,6,25,0.06,3,Rain,232
2013-4-14,36,25,14,31,19,6,92,74,55,29.81,29.46,29.31,10,9,2,31,16,48,T,5,Snow,287
2013-4-15,29,20,11,18,12,3,91,67,42,30.13,29.94,29.77,10,9,5,16,7,23,T,5,Snow,189
2013-4-16,21,20,18,18,16,14,92,85,77,30.27,30.08,29.94,10,3,0,16,7,21,0.46,8,Fog-Snow,83
2013-4-17,23,18,12,16,15,8,92,83,74,30.27,30.10,30.01,10,3,1,16,7,20,0.12,8,Snow,39
2013-4-18,30,21,12,12,7,3,84,58,31,30.21,30.13,30.01,10,10,9,17,9,28,T,3,Snow,319
2013-4-19,40,31,22,27,23,13,100,74,48,30.05,29.93,29.88,10,6,0,22,9,30,0.04,7,Fog-Snow,256
2013-4-20,49,38,27,35,29,23,100,69,38,29.95,29.90,29.82,10,8,2,22,7,31,0.26,7,Rain,289
2013-4-21,45,36,27,34,29,26,92,73,53,30.10,30.01,29.91,10,5,0,17,8,22,0.57,7,Fog-Rain-Snow,51
2013-4-22,27,19,10,27,15,6,92,76,59,30.46,30.17,29.99,10,4,0,24,10,31,0.38,7,Fog-Snow,31
2013-4-23,30,16,2,14,8,-1,95,72,49,30.42,30.29,30.18,10,10,10,18,7,31,0.00,1,,276
2013-4-24,34,27,19,21,18,10,75,64,53,30.18,30.12,30.06,10,7,0,32,13,40,T,4,Snow,284
2013-4-25,57,42,27,20,17,14,69,45,20,30.13,29.95,29.83,10,10,10,23,8,32,0.00,0,,274
2013-4-26,61,45,28,23,20,18,69,45,20,30.15,30.09,29.97,10,10,10,14,4,22,0.00,2,,296
2013-4-27,67,49,31,26,22,19,66,43,19,30.13,29.98,29.81,10,9,2,20,7,28,0.00,0,,285
2013-4-28,64,52,40,42,31,23,92,60,27,29.98,29.83,29.74,10,9,2,16,6,28,0.26,4,Rain,356
2013-4-29,65,51,36,38,32,22,100,60,20,29.83,29.60,29.37,10,10,4,23,9,40,0.00,1,Rain,251
2013-4-30,46,37,27,30,25,12,92,62,31,30.12,29.89,29.56,10,5,0,17,8,25,0.16,7,Fog-Snow,36